createdAt,value
2019-01-27T00:00:52.896Z,2.40
2019-01-27T00:03:22.576Z,2.40
2019-01-27T00:05:52.285Z,2.40
2019-01-27T00:08:21.962Z,2.70
2019-01-27T00:10:51.720Z,2.90
2019-01-27T00:13:21.336Z,3.00
2019-01-27T00:15:50.978Z,3.20
2019-01-27T00:18:20.661Z,3.40
2019-01-27T00:20:50.308Z,3.40
2019-01-27T00:23:19.912Z,3.40
2019-01-27T00:25:49.545Z,3.40
2019-01-27T00:28:19.156Z,3.50
2019-01-27T00:30:48.919Z,3.50
2019-01-27T00:33:18.527Z,3.60
2019-01-27T00:35:48.235Z,3.60
2019-01-27T00:38:17.844Z,3.70
2019-01-27T00:40:47.486Z,3.70
2019-01-27T00:43:17.091Z,3.60
2019-01-27T00:45:46.740Z,3.40
2019-01-27T00:48:16.348Z,3.20
2019-01-27T00:50:46.132Z,3.10
2019-01-27T00:53:15.812Z,3.00
2019-01-27T00:55:45.449Z,3.00
2019-01-27T00:58:15.080Z,2.80
2019-01-27T01:00:44.790Z,2.60
2019-01-27T01:03:14.404Z,2.40
2019-01-27T01:05:44.107Z,2.40
2019-01-27T01:08:13.792Z,2.40
2019-01-27T01:10:43.529Z,2.20
2019-01-27T01:13:13.168Z,2.00
2019-01-27T01:15:42.778Z,1.80
2019-01-27T01:18:12.593Z,1.80
2019-01-27T01:20:42.406Z,1.80
2019-01-27T01:23:12.117Z,1.90
2019-01-27T01:25:41.801Z,1.80
2019-01-27T01:28:11.516Z,1.80
2019-01-27T01:30:41.414Z,1.70
2019-01-27T01:33:11.054Z,1.80
2019-01-27T01:35:40.736Z,1.70
2019-01-27T01:38:10.454Z,1.50
2019-01-27T01:40:40.081Z,1.70
2019-01-27T01:43:09.722Z,1.80
2019-01-27T01:45:39.405Z,1.90
2019-01-27T01:48:09.135Z,2.00
2019-01-27T01:50:39.056Z,2.10
2019-01-27T01:53:08.773Z,2.10
2019-01-27T01:55:38.467Z,2.30
2019-01-27T01:58:08.113Z,2.40
2019-01-27T02:00:37.730Z,2.50
2019-01-27T02:03:07.379Z,2.70
2019-01-27T02:05:37.004Z,2.90
2019-01-27T02:08:06.790Z,3.00
2019-01-27T02:10:36.549Z,3.00
2019-01-27T02:13:07.229Z,3.10
2019-01-27T02:15:39.996Z,3.10
2019-01-27T02:18:09.713Z,3.20
2019-01-27T02:20:39.413Z,3.30
2019-01-27T02:23:09.124Z,3.30
2019-01-27T02:25:38.749Z,3.30
2019-01-27T02:28:08.385Z,3.40
2019-01-27T02:30:38.241Z,3.40
2019-01-27T02:33:07.885Z,3.40
2019-01-27T02:35:37.841Z,3.50
2019-01-27T02:38:07.481Z,3.40
2019-01-27T02:40:37.153Z,3.50
2019-01-27T02:43:06.870Z,3.60
2019-01-27T02:45:36.489Z,3.50
2019-01-27T02:48:06.371Z,3.60
2019-01-27T02:50:36.061Z,3.60
2019-01-27T02:53:05.782Z,3.60
2019-01-27T02:55:35.393Z,3.60
2019-01-27T02:58:05.773Z,3.60
2019-01-27T03:00:35.572Z,3.50
2019-01-27T03:03:05.662Z,3.60
2019-01-27T03:05:45.951Z,3.70
2019-01-27T03:08:15.575Z,3.60
2019-01-27T03:10:45.286Z,3.60
2019-01-27T03:13:14.994Z,3.70
2019-01-27T03:15:44.608Z,3.80
2019-01-27T03:18:14.238Z,3.80
2019-01-27T03:20:43.925Z,3.80
2019-01-27T03:23:13.550Z,3.80
2019-01-27T03:25:43.201Z,3.70
2019-01-27T03:28:12.809Z,3.80
2019-01-27T03:30:42.663Z,3.80
2019-01-27T03:33:12.282Z,3.80
2019-01-27T03:35:41.922Z,3.60
2019-01-27T03:38:11.548Z,3.50
2019-01-27T03:40:41.389Z,3.50
2019-01-27T03:43:11.010Z,3.40
2019-01-27T03:45:40.826Z,3.30
2019-01-27T03:48:10.517Z,3.30
2019-01-27T03:50:40.158Z,3.30
2019-01-27T03:53:09.781Z,3.30
2019-01-27T03:55:39.424Z,3.20
2019-01-27T03:58:09.112Z,3.30
2019-01-27T04:00:38.861Z,3.30
2019-01-27T04:03:08.489Z,3.30
2019-01-27T04:05:38.129Z,3.30
2019-01-27T04:08:07.742Z,3.20
2019-01-27T04:10:37.387Z,3.20
2019-01-27T04:13:07.081Z,3.10
2019-01-27T04:15:36.789Z,3.10
2019-01-27T04:18:06.477Z,3.10
2019-01-27T04:20:36.401Z,3.10
2019-01-27T04:23:06.024Z,3.00
2019-01-27T04:25:35.666Z,3.00
2019-01-27T04:28:05.462Z,3.00
2019-01-27T04:30:36.905Z,3.00
2019-01-27T04:33:06.611Z,3.10
2019-01-27T04:35:36.306Z,3.10
2019-01-27T04:38:05.990Z,3.10
2019-01-27T04:40:37.436Z,3.10
2019-01-27T04:43:07.203Z,3.10
2019-01-27T04:45:38.112Z,3.10
2019-01-27T04:48:08.270Z,3.00
2019-01-27T04:50:38.054Z,3.00
2019-01-27T04:53:07.741Z,2.90
2019-01-27T04:55:37.383Z,2.90
2019-01-27T04:58:07.171Z,2.80
2019-01-27T05:00:36.881Z,2.70
2019-01-27T05:03:10.897Z,2.60
2019-01-27T05:05:40.844Z,2.50
2019-01-27T05:08:10.469Z,2.50
2019-01-27T05:10:40.185Z,2.50
2019-01-27T05:13:09.808Z,2.50
2019-01-27T05:15:39.518Z,2.50
2019-01-27T05:18:09.134Z,2.40
2019-01-27T05:20:38.866Z,2.40
2019-01-27T05:23:10.809Z,2.40
2019-01-27T05:25:40.463Z,2.30
2019-01-27T05:28:10.077Z,2.30
2019-01-27T05:30:39.764Z,2.30
2019-01-27T05:33:09.370Z,2.30
2019-01-27T05:35:39.010Z,2.30
2019-01-27T05:38:08.639Z,2.20
2019-01-27T05:40:38.385Z,2.10
2019-01-27T05:43:07.999Z,2.30
2019-01-27T05:45:37.638Z,2.10
2019-01-27T05:48:07.265Z,2.10
2019-01-27T05:50:37.090Z,2.00
2019-01-27T05:53:06.705Z,1.90
2019-01-27T05:55:36.350Z,1.80
2019-01-27T05:58:06.037Z,1.70
2019-01-27T06:00:43.017Z,1.60
2019-01-27T06:03:14.960Z,1.60
2019-01-27T06:05:44.653Z,1.60
2019-01-27T06:08:14.268Z,1.60
2019-01-27T06:10:43.926Z,1.60
2019-01-27T06:13:13.529Z,1.40
2019-01-27T06:15:43.169Z,1.50
2019-01-27T06:18:12.791Z,1.40
2019-01-27T06:20:42.497Z,1.40
2019-01-27T06:23:12.125Z,1.40
2019-01-27T06:25:41.773Z,1.40
2019-01-27T06:28:11.391Z,1.40
2019-01-27T06:30:41.173Z,1.30
2019-01-27T06:33:15.401Z,1.90
2019-01-27T06:35:45.049Z,2.70
2019-01-27T06:38:14.668Z,2.20
2019-01-27T06:40:44.417Z,1.90
2019-01-27T06:43:14.034Z,1.90
2019-01-27T06:45:43.673Z,2.00
2019-01-27T06:48:13.317Z,2.00
2019-01-27T06:50:42.949Z,2.00
2019-01-27T06:53:12.578Z,2.00
2019-01-27T06:55:42.369Z,2.00
2019-01-27T06:58:12.013Z,1.90
2019-01-27T07:00:46.025Z,1.90
2019-01-27T07:03:20.126Z,2.10
2019-01-27T07:05:51.385Z,2.20
2019-01-27T07:08:25.078Z,2.30
2019-01-27T07:11:14.510Z,2.30
2019-01-27T07:13:57.581Z,2.80
2019-01-27T07:16:34.873Z,3.10
2019-01-27T07:19:12.810Z,3.30
2019-01-27T07:21:44.158Z,3.50
2019-01-27T07:24:30.498Z,3.60
2019-01-27T07:27:10.557Z,3.70
2019-01-27T07:29:58.115Z,3.70
2019-01-27T07:32:32.341Z,3.70
2019-01-27T07:35:03.605Z,3.70
2019-01-27T07:37:37.654Z,3.60
2019-01-27T07:40:17.850Z,3.60
2019-01-27T07:42:52.037Z,3.60
2019-01-27T07:45:23.293Z,3.50
2019-01-27T07:47:57.514Z,3.40
2019-01-27T07:50:47.229Z,3.50
2019-01-27T07:53:30.494Z,3.40
2019-01-27T07:56:12.273Z,3.40
2019-01-27T07:58:43.622Z,3.40
2019-01-27T08:01:17.291Z,3.20
2019-01-27T08:04:03.834Z,3.20
2019-01-27T08:06:43.602Z,3.20
2019-01-27T08:09:17.641Z,3.20
2019-01-27T08:11:48.901Z,3.20
2019-01-27T08:14:23.094Z,3.20
2019-01-27T08:17:03.690Z,3.30
2019-01-27T08:19:47.026Z,3.30
2019-01-27T08:22:24.269Z,3.20
2019-01-27T08:25:10.604Z,3.30
2019-01-27T08:27:44.532Z,3.20
2019-01-27T08:30:20.160Z,3.20
2019-01-27T08:32:51.448Z,3.20
2019-01-27T08:35:22.732Z,3.20
2019-01-27T08:38:02.957Z,3.20
2019-01-27T08:40:34.247Z,3.30
2019-01-27T08:43:05.497Z,3.30
2019-01-27T08:45:36.846Z,3.20
2019-01-27T08:48:06.632Z,3.50
2019-01-27T08:50:36.530Z,3.50
2019-01-27T08:53:06.170Z,3.40
2019-01-27T08:55:35.925Z,3.50
2019-01-27T08:58:05.798Z,3.40
2019-01-27T09:00:35.858Z,3.40
2019-01-27T09:03:24.066Z,3.60
2019-01-27T09:06:01.344Z,3.50
2019-01-27T09:08:32.693Z,3.60
2019-01-27T09:11:09.563Z,3.60
2019-01-27T09:13:46.281Z,3.60
2019-01-27T09:16:19.631Z,3.70
2019-01-27T09:18:54.058Z,4.00
2019-01-27T09:21:28.426Z,3.80
2019-01-27T09:24:02.817Z,3.80
2019-01-27T09:26:37.313Z,3.70
2019-01-27T09:29:11.341Z,3.70
2019-01-27T09:31:57.838Z,3.80
2019-01-27T09:34:31.809Z,3.80
2019-01-27T09:37:06.126Z,3.70
2019-01-27T09:39:40.300Z,3.80
2019-01-27T09:42:11.559Z,3.80
2019-01-27T09:44:48.757Z,4.00
2019-01-27T09:47:23.134Z,4.30
2019-01-27T09:49:57.605Z,4.40
2019-01-27T09:52:37.918Z,4.50
2019-01-27T09:55:14.595Z,4.70
2019-01-27T09:58:02.366Z,4.90
2019-01-27T10:00:39.694Z,4.90
2019-01-27T10:03:20.138Z,5.00
2019-01-27T10:05:57.349Z,5.00
2019-01-27T10:08:28.621Z,5.10
2019-01-27T10:11:16.301Z,5.10
2019-01-27T10:13:54.007Z,5.20
2019-01-27T10:16:26.910Z,5.30
2019-01-27T10:19:01.098Z,5.30
2019-01-27T10:21:35.550Z,5.30
2019-01-27T10:24:10.035Z,5.30
2019-01-27T10:26:47.417Z,5.40
2019-01-27T10:29:27.893Z,5.40
2019-01-27T10:32:01.686Z,5.40
2019-01-27T10:34:33.052Z,5.40
2019-01-27T10:37:12.033Z,5.40
2019-01-27T10:39:40.557Z,5.40
2019-01-27T10:42:17.553Z,5.40
2019-01-27T10:44:57.382Z,5.40
2019-01-27T10:47:38.181Z,5.40
2019-01-27T10:50:27.886Z,5.50
2019-01-27T10:53:02.245Z,5.60
2019-01-27T10:55:33.755Z,5.50
2019-01-27T10:58:17.434Z,5.50
2019-01-27T11:00:48.805Z,5.50
2019-01-27T11:03:23.206Z,5.50
2019-01-27T11:05:57.238Z,5.60
2019-01-27T11:08:28.568Z,5.70
2019-01-27T11:11:02.812Z,5.60
2019-01-27T11:13:43.138Z,5.70
2019-01-27T11:16:23.693Z,5.70
2019-01-27T11:18:55.048Z,5.70
2019-01-27T11:21:28.135Z,5.80
2019-01-27T11:24:02.653Z,5.90
2019-01-27T11:26:49.186Z,6.00
2019-01-27T11:29:23.786Z,6.00
2019-01-27T11:31:55.261Z,6.00
2019-01-27T11:34:32.422Z,6.00
2019-01-27T11:37:03.890Z,6.00
2019-01-27T11:39:47.701Z,6.10
2019-01-27T11:42:25.118Z,6.20
2019-01-27T11:44:59.980Z,6.20
2019-01-27T11:47:31.679Z,6.20
2019-01-27T11:50:03.137Z,6.30
2019-01-27T11:52:33.608Z,6.30
2019-01-27T11:55:04.829Z,6.40
2019-01-27T11:57:35.726Z,6.50
2019-01-27T12:00:11.877Z,6.80
2019-01-27T12:02:46.587Z,7.00
2019-01-27T12:05:14.034Z,7.40
2019-01-27T12:07:44.297Z,7.40
2019-01-27T12:10:16.419Z,7.30
2019-01-27T12:12:46.674Z,7.00
2019-01-27T12:15:18.936Z,6.80
2019-01-27T12:17:49.262Z,6.70
2019-01-27T12:20:19.568Z,6.60
2019-01-27T12:22:50.011Z,6.50
2019-01-27T12:25:20.416Z,6.40
2019-01-27T12:27:50.759Z,6.40
2019-01-27T12:30:21.372Z,6.30
2019-01-27T12:32:51.834Z,6.40
2019-01-27T12:35:22.221Z,6.50
2019-01-27T12:37:52.556Z,6.60
2019-01-27T12:40:24.908Z,6.70
2019-01-27T12:42:55.057Z,7.00
2019-01-27T12:45:25.257Z,7.50
2019-01-27T12:47:55.807Z,8.10
2019-01-27T12:50:25.997Z,9.10
2019-01-27T12:52:55.816Z,9.20
2019-01-27T12:55:27.306Z,10.50
2019-01-27T12:57:57.629Z,9.30
2019-01-27T13:00:33.614Z,8.40
2019-01-27T13:03:04.086Z,8.10
2019-01-27T13:05:34.238Z,7.80
2019-01-27T13:08:04.937Z,7.50
2019-01-27T13:10:34.841Z,7.40
2019-01-27T13:13:05.073Z,7.40
2019-01-27T13:15:35.486Z,7.30
2019-01-27T13:18:06.133Z,7.20
2019-01-27T13:20:36.533Z,7.10
2019-01-27T13:23:06.891Z,7.00
2019-01-27T13:25:37.295Z,6.90
2019-01-27T13:28:07.834Z,7.10
2019-01-27T13:30:37.702Z,7.20
2019-01-27T13:33:08.382Z,7.40
2019-01-27T13:35:39.059Z,7.60
2019-01-27T13:38:09.459Z,7.60
2019-01-27T13:40:39.549Z,7.50
2019-01-27T13:43:10.025Z,7.30
2019-01-27T13:45:40.396Z,7.30
2019-01-27T13:48:11.185Z,7.30
2019-01-27T13:50:41.553Z,7.20
2019-01-27T13:55:52.137Z,7.40
2019-01-27T13:58:22.576Z,7.60
2019-01-27T14:00:52.458Z,7.70
2019-01-27T14:03:22.808Z,7.80
2019-01-27T14:05:53.209Z,7.70
2019-01-27T14:08:23.601Z,7.60
2019-01-27T14:10:55.194Z,7.60
2019-01-27T14:13:25.562Z,7.60
2019-01-27T14:15:56.037Z,7.80
2019-01-27T14:18:26.496Z,9.00
2019-01-27T14:20:56.697Z,9.10
2019-01-27T14:23:27.079Z,8.90
2019-01-27T14:25:57.345Z,8.30
2019-01-27T14:28:27.685Z,8.00
2019-01-27T14:30:57.722Z,8.00
2019-01-27T14:33:28.114Z,7.90
2019-01-27T14:35:58.566Z,7.90
2019-01-27T14:38:28.861Z,7.90
2019-01-27T14:40:59.313Z,7.80
2019-01-27T14:43:29.329Z,7.70
2019-01-27T14:45:59.645Z,7.70
2019-01-27T14:48:30.159Z,7.60
2019-01-27T14:51:00.302Z,7.50
2019-01-27T14:53:30.601Z,7.50
2019-01-27T14:56:00.753Z,7.40
2019-01-27T14:58:31.052Z,7.30
2019-01-27T15:01:01.397Z,7.20
2019-01-27T15:03:31.794Z,7.20
2019-01-27T15:06:02.137Z,7.10
2019-01-27T15:08:32.635Z,7.10
2019-01-27T15:11:02.996Z,7.20
2019-01-27T15:13:33.388Z,7.20
2019-01-27T15:16:03.937Z,7.20
2019-01-27T15:18:34.566Z,7.10
2019-01-27T15:21:05.301Z,7.10
2019-01-27T15:23:35.813Z,7.10
2019-01-27T15:26:06.265Z,7.00
2019-01-27T15:28:36.665Z,7.00
2019-01-27T15:31:07.117Z,7.00
2019-01-27T15:33:37.521Z,6.90
2019-01-27T15:36:08.171Z,6.80
2019-01-27T15:38:38.569Z,6.90
2019-01-27T15:41:09.120Z,6.80
2019-01-27T15:43:39.429Z,6.90
2019-01-27T15:46:09.469Z,6.80
2019-01-27T15:48:39.861Z,6.80
2019-01-27T15:51:10.009Z,6.70
2019-01-27T15:53:39.885Z,6.60
2019-01-27T15:56:10.072Z,6.60
2019-01-27T15:58:40.449Z,6.60
2019-01-27T16:01:10.802Z,6.60
2019-01-27T16:03:41.200Z,6.70
2019-01-27T16:06:11.441Z,6.70
2019-01-27T16:08:41.666Z,6.60
2019-01-27T16:11:11.993Z,6.50
2019-01-27T16:13:42.294Z,6.40
2019-01-27T16:16:12.458Z,6.20
2019-01-27T16:18:42.934Z,6.10
2019-01-27T16:21:13.498Z,6.10
2019-01-27T16:23:44.085Z,6.10
2019-01-27T16:26:14.897Z,5.90
2019-01-27T16:28:45.558Z,5.90
2019-01-27T16:31:17.289Z,5.90
2019-01-27T16:33:51.477Z,6.00
2019-01-27T16:36:21.899Z,6.00
2019-01-27T16:38:52.193Z,6.00
2019-01-27T16:41:22.678Z,6.10
2019-01-27T16:43:53.145Z,6.20
2019-01-27T16:46:23.630Z,6.10
2019-01-27T16:48:53.985Z,6.00
2019-01-27T16:51:24.461Z,6.20
2019-01-27T16:53:54.654Z,6.50
2019-01-27T16:56:25.401Z,6.40
2019-01-27T16:58:55.602Z,6.40
2019-01-27T17:01:26.184Z,6.40
2019-01-27T17:03:56.661Z,6.40
2019-01-27T17:06:27.346Z,6.40
2019-01-27T17:08:57.709Z,6.20
2019-01-27T17:11:27.981Z,6.30
2019-01-27T17:13:58.355Z,6.20
2019-01-27T17:16:28.397Z,6.10
2019-01-27T17:18:58.826Z,6.10
2019-01-27T17:21:29.458Z,6.00
2019-01-27T17:23:59.773Z,5.90
2019-01-27T17:26:30.282Z,5.80
2019-01-27T17:29:00.635Z,5.80
2019-01-27T17:31:31.237Z,5.70
2019-01-27T17:34:01.801Z,5.70
2019-01-27T17:36:31.992Z,5.80
2019-01-27T17:39:09.313Z,6.00
2019-01-27T17:41:34.477Z,6.20
2019-01-27T17:44:05.133Z,6.20
2019-01-27T17:46:35.837Z,6.20
2019-01-27T17:49:06.893Z,6.10
2019-01-27T17:51:37.605Z,6.10
2019-01-27T17:54:08.769Z,6.10
2019-01-27T17:56:39.388Z,6.00
2019-01-27T17:59:11.585Z,6.10
2019-01-27T18:01:43.469Z,6.00
2019-01-27T18:04:14.952Z,6.00
2019-01-27T18:06:46.366Z,6.00
2019-01-27T18:09:33.205Z,6.00
2019-01-27T18:12:04.832Z,6.00
2019-01-27T18:14:35.754Z,6.00
2019-01-27T18:17:06.455Z,7.50
2019-01-27T18:19:36.801Z,6.90
2019-01-27T18:22:08.678Z,6.20
2019-01-27T18:24:39.188Z,5.90
2019-01-27T18:27:09.793Z,5.70
2019-01-27T18:29:40.454Z,5.70
2019-01-27T18:32:11.179Z,5.60
2019-01-27T18:34:41.917Z,5.60
2019-01-27T18:37:12.445Z,5.60
2019-01-27T18:39:43.098Z,5.80
2019-01-27T18:42:14.190Z,5.70
2019-01-27T18:44:44.752Z,5.60
2019-01-27T18:47:15.456Z,5.60
2019-01-27T18:49:46.315Z,5.60
2019-01-27T18:52:17.950Z,5.60
2019-01-27T18:54:49.473Z,5.60
2019-01-27T18:57:20.894Z,5.60
2019-01-27T18:59:55.545Z,5.50
2019-01-27T19:02:30.449Z,5.50
2019-01-27T19:05:02.035Z,5.50
2019-01-27T19:07:33.558Z,5.50
2019-01-27T19:10:11.066Z,5.50
2019-01-27T19:12:51.718Z,5.50
2019-01-27T19:15:38.445Z,5.50
2019-01-27T19:21:15.658Z,5.50
2019-01-27T19:24:03.539Z,5.70
2019-01-27T19:26:35.114Z,6.70
2019-01-27T19:29:19.323Z,6.30
2019-01-27T19:31:50.810Z,5.80
2019-01-27T19:34:25.666Z,5.70
2019-01-27T19:37:09.381Z,5.60
2019-01-27T19:39:50.286Z,5.60
2019-01-27T19:42:24.465Z,5.50
2019-01-27T19:45:02.186Z,5.50
2019-01-27T19:47:39.861Z,5.50
2019-01-27T19:50:12.261Z,5.50
2019-01-27T19:52:47.265Z,5.50
2019-01-27T19:55:18.943Z,5.40
2019-01-27T19:58:02.555Z,5.50
2019-01-27T20:00:34.238Z,5.50
2019-01-27T20:03:06.169Z,5.40
2019-01-27T20:05:37.659Z,5.40
2019-01-27T20:08:11.950Z,5.40
2019-01-27T20:10:46.489Z,5.40
2019-01-27T20:13:21.191Z,5.40
2019-01-27T20:15:55.642Z,5.30
2019-01-27T20:18:33.518Z,5.30
2019-01-27T20:21:08.166Z,5.30
2019-01-27T20:23:42.555Z,5.30
2019-01-27T20:26:14.242Z,5.30
2019-01-27T20:28:48.434Z,5.20
2019-01-27T20:31:20.102Z,5.20
2019-01-27T20:33:51.634Z,5.20
2019-01-27T20:36:23.218Z,5.20
2019-01-27T20:39:06.825Z,5.20
2019-01-27T20:41:38.501Z,5.10
2019-01-27T20:44:10.244Z,5.10
2019-01-27T20:46:44.573Z,5.00
2019-01-27T20:49:16.109Z,5.10
2019-01-27T20:51:47.556Z,5.00
2019-01-27T20:54:28.121Z,4.90
2019-01-27T20:57:05.642Z,4.90
2019-01-27T20:59:49.378Z,4.90
2019-01-27T21:02:20.941Z,4.90
2019-01-27T21:04:58.390Z,4.80
2019-01-27T21:07:32.841Z,4.90
2019-01-27T21:10:23.001Z,4.90
2019-01-27T21:13:06.765Z,4.90
2019-01-27T21:15:38.298Z,4.90
2019-01-27T21:18:09.873Z,4.90
2019-01-27T21:20:40.537Z,4.90
2019-01-27T21:23:11.097Z,4.80
2019-01-27T21:25:41.593Z,4.80
2019-01-27T21:28:11.953Z,4.80
2019-01-27T21:30:42.243Z,4.80
2019-01-27T21:33:12.489Z,4.80
2019-01-27T21:35:42.693Z,4.80
2019-01-27T21:38:12.944Z,4.70
2019-01-27T21:40:43.228Z,4.70
2019-01-27T21:43:13.573Z,4.70
2019-01-27T21:45:43.877Z,4.70
2019-01-27T21:48:14.025Z,4.60
2019-01-27T21:50:44.122Z,4.60
2019-01-27T21:53:14.265Z,4.60
2019-01-27T21:55:44.571Z,4.60
2019-01-27T21:58:14.726Z,4.60
2019-01-27T22:00:44.705Z,4.60
2019-01-27T22:03:14.854Z,4.60
2019-01-27T22:05:45.657Z,4.60
2019-01-27T22:08:15.692Z,4.60
2019-01-27T22:10:45.791Z,4.60
2019-01-27T22:13:15.606Z,4.50
2019-01-27T22:15:47.035Z,4.50
2019-01-27T22:18:16.674Z,4.40
2019-01-27T22:20:46.289Z,4.20
2019-01-27T22:23:15.945Z,4.10
2019-01-27T22:25:45.821Z,4.10
2019-01-27T22:28:15.541Z,4.00
2019-01-27T22:30:45.647Z,4.00
2019-01-27T22:33:15.456Z,4.00
2019-01-27T22:35:45.133Z,4.10
2019-01-27T22:38:14.773Z,4.10
2019-01-27T22:40:44.461Z,4.10
2019-01-27T22:43:14.106Z,4.10
2019-01-27T22:45:43.721Z,4.00
2019-01-27T22:48:13.365Z,4.00
2019-01-27T22:50:42.986Z,4.00
2019-01-27T22:53:12.629Z,3.80
2019-01-27T22:55:42.316Z,3.80
2019-01-27T22:58:11.957Z,3.70
2019-01-27T23:00:46.657Z,3.60
2019-01-27T23:03:16.386Z,3.50
2019-01-27T23:05:46.374Z,3.40
2019-01-27T23:08:16.018Z,3.40
2019-01-27T23:10:45.670Z,3.30
2019-01-27T23:13:15.313Z,3.20
2019-01-27T23:15:44.929Z,3.30
2019-01-27T23:18:14.645Z,3.20
2019-01-27T23:20:44.397Z,3.20
2019-01-27T23:23:14.045Z,3.10
2019-01-27T23:25:43.841Z,3.10
2019-01-27T23:28:13.481Z,3.10
2019-01-27T23:30:43.164Z,3.10
2019-01-27T23:33:12.812Z,3.00
2019-01-27T23:35:42.514Z,3.10
2019-01-27T23:38:12.158Z,3.10
2019-01-27T23:40:41.769Z,3.10
2019-01-27T23:43:11.393Z,3.10
2019-01-27T23:45:41.073Z,3.00
2019-01-27T23:48:10.685Z,3.00
2019-01-27T23:50:40.334Z,3.00
2019-01-27T23:53:09.953Z,3.00
2019-01-27T23:55:39.591Z,3.00
2019-01-27T23:58:09.376Z,3.00
